Terminal Aerodrome Forecast
Issued by NWS

Home | Current Version | Previous Version | Text Only | Print | Product List | Glossary On
Versions: 1 2 3 4 5 6 7 8 9 10 11 12 13 14 15 16
000
FTAK31 PAJN 302300
TAFAPG
TAF
PAPG 302330Z 3100/3124 06005KT P6SM VCSH SCT030 BKN070
     FM310800 VRB03KT P6SM BCFG SCT002 BKN100
      TEMPO 3111/3115 4SM BR SCT001
     FM311800 VRB04KT P6SM FEW100
      AMD LTD TO CLD VIS AND WIND 3106/3115=

USA.gov is the U.S. government's official web portal to all federal, state and local government web resources and services.